EDXW/GWT METAR and TAF weather

Enter ICAO airport designator
Station Type Date Time Source
EDXW METAR 2020/07/10 00:20 UTC NOAA

EDXW 100020Z AUTO 04007KT 9999 // FEW100/// 12/09 Q1011


Station Type Date Time Source
EDXW Decoded METAR 2020/07/10 00:20 UTC NOAA

Westerland / Sylt, Germany (EDXW) 54-55N 008-21E 20M
Jul 09, 2020 - 08:20 PM EDT / 2020.07.10 0020 UTC
Wind: from the NE (040 degrees) at 8 MPH (7 KT):0
Visibility: greater than 7 mile(s):0
Sky conditions: mostly clear
Temperature: 53 F (12 C)
Dew Point: 48 F (9 C)
Relative Humidity: 81%
Pressure (altimeter): 29.85 in. Hg (1011 hPa)
ob: EDXW 100020Z AUTO 04007KT 9999 // FEW100/// 12/09 Q1011
cycle: 0

Station Type Date Time Source
EDXW TAF 2009/07/07 14:00 UTC NOAA

TAF EDXW 071400Z 0715/0719 22015G25KT 9999 SCT020

Example: see airport list